createdAt,value
2018-10-01T00:01:06.000Z,100174
2018-10-01T00:02:06.000Z,100180
2018-10-01T00:03:06.000Z,100179
2018-10-01T00:05:06.000Z,100169
2018-10-01T00:06:06.000Z,100174
2018-10-01T00:08:06.000Z,100173
2018-10-01T00:10:06.000Z,100168
2018-10-01T00:12:06.000Z,100166
2018-10-01T00:13:06.000Z,100171
2018-10-01T00:15:06.000Z,100172
2018-10-01T00:17:06.000Z,100166
2018-10-01T00:19:06.000Z,100169
2018-10-01T00:21:06.000Z,100164
2018-10-01T00:22:06.000Z,100167
2018-10-01T00:23:51.000Z,100166
2018-10-01T00:25:06.000Z,100174
2018-10-01T00:27:07.000Z,100174
2018-10-01T00:29:07.000Z,100172
2018-10-01T00:31:07.000Z,100181
2018-10-01T00:33:07.000Z,100175
2018-10-01T00:34:07.000Z,100177
2018-10-01T00:36:07.000Z,100172
2018-10-01T00:37:07.000Z,100183
2018-10-01T00:38:52.000Z,100177
2018-10-01T00:40:07.000Z,100183
2018-10-01T00:42:07.000Z,100178
2018-10-01T00:44:07.000Z,100175
2018-10-01T00:46:07.000Z,100172
2018-10-01T00:48:07.000Z,100167
2018-10-01T00:49:07.000Z,100168
2018-10-01T00:50:07.000Z,100171
2018-10-01T00:52:07.000Z,100178
2018-10-01T00:54:07.000Z,100178
2018-10-01T00:55:52.000Z,100178
2018-10-01T00:57:07.000Z,100177
2018-10-01T00:59:07.000Z,100172
2018-10-01T01:00:07.000Z,100176
2018-10-01T01:01:52.000Z,100173
2018-10-01T01:03:07.000Z,100174
2018-10-01T01:04:07.000Z,100170
2018-10-01T01:06:07.000Z,100162
2018-10-01T01:07:07.000Z,100162
2018-10-01T01:08:07.000Z,100160
2018-10-01T01:09:52.000Z,100154
2018-10-01T01:11:07.000Z,100153
2018-10-01T01:13:07.000Z,100154
2018-10-01T01:14:07.000Z,100157
2018-10-01T01:16:07.000Z,100155
2018-10-01T01:18:07.000Z,100155
2018-10-01T01:19:07.000Z,100155
2018-10-01T01:21:07.000Z,100152
2018-10-01T01:23:07.000Z,100156
2018-10-01T01:25:07.000Z,100159
2018-10-01T01:26:07.000Z,100158
2018-10-01T01:28:07.000Z,100154
2018-10-01T01:29:07.000Z,100143
2018-10-01T01:31:07.000Z,100147
2018-10-01T01:33:07.000Z,100146
2018-10-01T01:34:07.000Z,100142
2018-10-01T01:36:07.000Z,100146
2018-10-01T01:37:52.000Z,100140
2018-10-01T01:38:52.000Z,100137
2018-10-01T01:40:07.000Z,100137
2018-10-01T01:42:07.000Z,100135
2018-10-01T01:43:07.000Z,100139
2018-10-01T01:45:07.000Z,100143
2018-10-01T01:47:07.000Z,100144
2018-10-01T01:49:07.000Z,100152
2018-10-01T01:51:07.000Z,100159
2018-10-01T01:52:07.000Z,100166
2018-10-01T01:54:07.000Z,100173
2018-10-01T01:56:07.000Z,100173
2018-10-01T01:58:07.000Z,100176
2018-10-01T01:59:07.000Z,100174
2018-10-01T02:01:07.000Z,100171
2018-10-01T02:03:07.000Z,100169
2018-10-01T02:04:07.000Z,100168
2018-10-01T02:06:07.000Z,100169
2018-10-01T02:07:52.000Z,100172
2018-10-01T02:09:07.000Z,100176
2018-10-01T02:11:07.000Z,100172
2018-10-01T02:12:07.000Z,100172
2018-10-01T02:14:07.000Z,100175
2018-10-01T02:16:07.000Z,100177
2018-10-01T02:17:07.000Z,100175
2018-10-01T02:19:07.000Z,100179
2018-10-01T02:21:07.000Z,100179
2018-10-01T02:22:07.000Z,100182
2018-10-01T02:24:07.000Z,100178
2018-10-01T02:26:07.000Z,100184
2018-10-01T02:27:07.000Z,100180
2018-10-01T02:28:07.000Z,100180
2018-10-01T02:30:07.000Z,100182
2018-10-01T02:32:07.000Z,100182
2018-10-01T02:33:07.000Z,100181
2018-10-01T02:34:51.000Z,100179
2018-10-01T02:36:07.000Z,100178
2018-10-01T02:38:07.000Z,100183
2018-10-01T02:40:07.000Z,100180
2018-10-01T02:42:07.000Z,100183
2018-10-01T02:44:07.000Z,100182
2018-10-01T02:45:07.000Z,100177
2018-10-01T02:47:07.000Z,100183
2018-10-01T02:48:07.000Z,100189
2018-10-01T02:50:07.000Z,100182
2018-10-01T02:52:07.000Z,100185
2018-10-01T02:53:07.000Z,100185
2018-10-01T02:54:07.000Z,100186
2018-10-01T02:56:07.000Z,100184
2018-10-01T02:58:07.000Z,100190
2018-10-01T02:59:51.000Z,100189
2018-10-01T03:01:07.000Z,100190
2018-10-01T03:03:07.000Z,100194
2018-10-01T03:04:07.000Z,100192
2018-10-01T03:05:51.000Z,100188
2018-10-01T03:07:07.000Z,100188
2018-10-01T03:09:07.000Z,100188
2018-10-01T03:11:07.000Z,100188
2018-10-01T03:12:07.000Z,100188
2018-10-01T03:14:07.000Z,100187
2018-10-01T03:15:07.000Z,100182
2018-10-01T03:17:07.000Z,100187
2018-10-01T03:18:07.000Z,100186
2018-10-01T03:20:07.000Z,100182
2018-10-01T03:22:07.000Z,100191
2018-10-01T03:24:07.000Z,100180
2018-10-01T03:25:07.000Z,100186
2018-10-01T03:26:07.000Z,100187
2018-10-01T03:27:51.000Z,100185
2018-10-01T03:29:07.000Z,100181
2018-10-01T03:30:07.000Z,100180
2018-10-01T03:32:07.000Z,100175
2018-10-01T03:34:07.000Z,100176
2018-10-01T03:35:07.000Z,100182
2018-10-01T03:36:07.000Z,100179
2018-10-01T03:38:07.000Z,100176
2018-10-01T03:40:07.000Z,100177
2018-10-01T03:41:52.000Z,100185
2018-10-01T03:43:07.000Z,100186
2018-10-01T03:45:07.000Z,100177
2018-10-01T03:46:07.000Z,100182
2018-10-01T03:48:07.000Z,100181
2018-10-01T03:49:52.000Z,100175
2018-10-01T03:51:07.000Z,100178
2018-10-01T03:52:07.000Z,100174
2018-10-01T03:54:07.000Z,100178
2018-10-01T03:56:07.000Z,100178
2018-10-01T03:58:07.000Z,100175
2018-10-01T03:59:07.000Z,100180
2018-10-01T04:00:07.000Z,100181
2018-10-01T04:01:52.000Z,100179
2018-10-01T04:03:07.000Z,100180
2018-10-01T04:05:07.000Z,100179
2018-10-01T04:07:07.000Z,100186
2018-10-01T04:08:07.000Z,100187
2018-10-01T04:10:07.000Z,100182
2018-10-01T04:11:07.000Z,100178
2018-10-01T04:13:07.000Z,100174
2018-10-01T04:14:07.000Z,100168
2018-10-01T04:15:37.000Z,100179
2018-10-01T04:17:07.000Z,100179
2018-10-01T04:18:07.000Z,100181
2018-10-01T04:20:07.000Z,100176
2018-10-01T04:21:07.000Z,100181
2018-10-01T04:22:07.000Z,100176
2018-10-01T04:24:07.000Z,100178
2018-10-01T04:26:07.000Z,100182
2018-10-01T04:27:07.000Z,100182
2018-10-01T04:29:07.000Z,100179
2018-10-01T04:31:07.000Z,100182
2018-10-01T04:32:07.000Z,100186
2018-10-01T04:33:37.000Z,100181
2018-10-01T04:35:07.000Z,100183
2018-10-01T04:36:52.000Z,100187
2018-10-01T04:38:07.000Z,100192
2018-10-01T04:40:07.000Z,100186
2018-10-01T04:42:07.000Z,100185
2018-10-01T04:44:07.000Z,100193
2018-10-01T04:45:51.000Z,100193
2018-10-01T04:47:07.000Z,100196
2018-10-01T04:49:07.000Z,100199
2018-10-01T04:50:07.000Z,100201
2018-10-01T04:52:07.000Z,100205
2018-10-01T04:54:07.000Z,100206
2018-10-01T04:55:07.000Z,100209
2018-10-01T04:56:07.000Z,100218
2018-10-01T04:58:07.000Z,100215
2018-10-01T04:59:51.000Z,100214
2018-10-01T05:01:07.000Z,100219
2018-10-01T05:03:07.000Z,100216
2018-10-01T05:04:51.000Z,100214
2018-10-01T05:06:07.000Z,100219
2018-10-01T05:07:51.000Z,100222
2018-10-01T05:09:07.000Z,100219
2018-10-01T05:11:07.000Z,100221
2018-10-01T05:12:07.000Z,100218
2018-10-01T05:13:51.000Z,100227
2018-10-01T05:15:07.000Z,100225
2018-10-01T05:16:07.000Z,100224
2018-10-01T05:18:07.000Z,100204
2018-10-01T05:19:07.000Z,100211
2018-10-01T05:21:07.000Z,100222
2018-10-01T05:23:07.000Z,100217
2018-10-01T05:24:07.000Z,100225
2018-10-01T05:25:51.000Z,100216
2018-10-01T05:27:07.000Z,100213
2018-10-01T05:29:07.000Z,100226
2018-10-01T05:31:07.000Z,100221
2018-10-01T05:33:07.000Z,100222
2018-10-01T05:34:07.000Z,100222
2018-10-01T05:36:07.000Z,100220
2018-10-01T05:38:07.000Z,100230
2018-10-01T05:39:51.000Z,100237
2018-10-01T05:41:07.000Z,100233
2018-10-01T05:43:07.000Z,100238
2018-10-01T05:45:07.000Z,100244
2018-10-01T05:47:07.000Z,100245
2018-10-01T05:49:07.000Z,100244
2018-10-01T05:51:07.000Z,100252
2018-10-01T05:52:52.000Z,100251
2018-10-01T05:54:07.000Z,100255
2018-10-01T05:55:07.000Z,100261
2018-10-01T05:56:07.000Z,100259
2018-10-01T05:58:07.000Z,100260
2018-10-01T06:00:07.000Z,100265
2018-10-01T06:02:07.000Z,100264
2018-10-01T06:04:07.000Z,100267
2018-10-01T06:05:07.000Z,100263
2018-10-01T06:07:07.000Z,100267
2018-10-01T06:08:52.000Z,100264
2018-10-01T06:10:07.000Z,100271
2018-10-01T06:11:07.000Z,100272
2018-10-01T06:13:07.000Z,100281
2018-10-01T06:14:07.000Z,100279
2018-10-01T06:15:07.000Z,100289
2018-10-01T06:17:07.000Z,100290
2018-10-01T06:19:07.000Z,100296
2018-10-01T06:21:07.000Z,100302
2018-10-01T06:22:52.000Z,100306
2018-10-01T06:24:07.000Z,100305
2018-10-01T06:26:07.000Z,100313
2018-10-01T06:27:07.000Z,100312
2018-10-01T06:29:07.000Z,100310
2018-10-01T06:30:07.000Z,100309
2018-10-01T06:32:07.000Z,100315
2018-10-01T06:34:07.000Z,100310
2018-10-01T06:35:07.000Z,100320
2018-10-01T06:37:07.000Z,100317
2018-10-01T06:38:52.000Z,100319
2018-10-01T06:40:07.000Z,100319
2018-10-01T06:42:07.000Z,100321
2018-10-01T06:44:07.000Z,100322
2018-10-01T06:46:07.000Z,100319
2018-10-01T06:48:07.000Z,100320
2018-10-01T06:50:07.000Z,100324
2018-10-01T06:51:07.000Z,100323
2018-10-01T06:53:07.000Z,100323
2018-10-01T06:55:07.000Z,100327
2018-10-01T06:57:07.000Z,100326
2018-10-01T06:58:07.000Z,100329
2018-10-01T06:59:37.000Z,100328
2018-10-01T07:01:07.000Z,100324
2018-10-01T07:03:07.000Z,100329
2018-10-01T07:05:07.000Z,100329
2018-10-01T07:07:07.000Z,100338
2018-10-01T07:08:07.000Z,100336
2018-10-01T07:09:07.000Z,100334
2018-10-01T07:10:52.000Z,100334
2018-10-01T07:12:07.000Z,100340
2018-10-01T07:13:07.000Z,100340
2018-10-01T07:15:07.000Z,100340
2018-10-01T07:17:07.000Z,100346
2018-10-01T07:19:07.000Z,100346
2018-10-01T07:20:07.000Z,100346
2018-10-01T07:21:07.000Z,100349
2018-10-01T07:22:52.000Z,100347
2018-10-01T07:24:07.000Z,100346
2018-10-01T07:26:07.000Z,100353
2018-10-01T07:28:07.000Z,100350
2018-10-01T07:30:07.000Z,100350
2018-10-01T07:32:07.000Z,100351
2018-10-01T07:34:07.000Z,100350
2018-10-01T07:36:07.000Z,100348
2018-10-01T07:37:07.000Z,100354
2018-10-01T07:39:07.000Z,100357
2018-10-01T07:40:52.000Z,100359
2018-10-01T07:42:07.000Z,100359
2018-10-01T07:44:07.000Z,100354
2018-10-01T07:46:07.000Z,100350
2018-10-01T07:47:07.000Z,100354
2018-10-01T07:48:07.000Z,100354
2018-10-01T07:50:07.000Z,100355
2018-10-01T07:51:36.000Z,100357
2018-10-01T07:53:06.000Z,100356
2018-10-01T07:54:06.000Z,100354
2018-10-01T07:55:06.000Z,100361
2018-10-01T07:57:06.000Z,100356
2018-10-01T07:59:06.000Z,100355
2018-10-01T08:00:06.000Z,100363
2018-10-01T08:02:06.000Z,100361
2018-10-01T08:03:51.000Z,100366
2018-10-01T08:04:51.000Z,100363
2018-10-01T08:06:06.000Z,100363
2018-10-01T08:08:06.000Z,100374
2018-10-01T08:10:06.000Z,100374
2018-10-01T08:12:06.000Z,100373
2018-10-01T08:13:51.000Z,100379
2018-10-01T08:15:06.000Z,100377
2018-10-01T08:16:06.000Z,100379
2018-10-01T08:18:06.000Z,100385
2018-10-01T08:20:06.000Z,100388
2018-10-01T08:21:51.000Z,100394
2018-10-01T08:23:06.000Z,100395
2018-10-01T08:24:06.000Z,100384
2018-10-01T08:25:06.000Z,100389
2018-10-01T08:27:06.000Z,100398
2018-10-01T08:28:36.000Z,100405
2018-10-01T08:30:06.000Z,100397
2018-10-01T08:31:51.000Z,100402
2018-10-01T08:33:06.000Z,100399
2018-10-01T08:35:06.000Z,100403
2018-10-01T08:37:06.000Z,100404
2018-10-01T08:39:06.000Z,100408
2018-10-01T08:40:06.000Z,100401
2018-10-01T08:42:06.000Z,100410
2018-10-01T08:43:06.000Z,100406
2018-10-01T08:44:06.000Z,100406
2018-10-01T08:45:51.000Z,100409
2018-10-01T08:47:06.000Z,100418
2018-10-01T08:48:51.000Z,100425
2018-10-01T08:50:06.000Z,100424
2018-10-01T08:52:06.000Z,100424
2018-10-01T08:53:51.000Z,100427
2018-10-01T08:55:07.000Z,100429
2018-10-01T08:57:07.000Z,100426
2018-10-01T08:58:07.000Z,100436
2018-10-01T09:00:07.000Z,100429
2018-10-01T09:01:52.000Z,100432
2018-10-01T09:03:07.000Z,100433
2018-10-01T09:05:07.000Z,100435
2018-10-01T09:06:07.000Z,100427
2018-10-01T09:07:52.000Z,100440
2018-10-01T09:09:07.000Z,100430
2018-10-01T09:11:07.000Z,100434
2018-10-01T09:13:07.000Z,100441
2018-10-01T09:14:07.000Z,100438
2018-10-01T09:16:07.000Z,100437
2018-10-01T09:18:07.000Z,100438
2018-10-01T09:19:07.000Z,100443
2018-10-01T09:21:07.000Z,100433
2018-10-01T09:23:07.000Z,100436
2018-10-01T09:24:07.000Z,100449
2018-10-01T09:25:52.000Z,100439
2018-10-01T09:27:07.000Z,100433
2018-10-01T09:29:07.000Z,100440
2018-10-01T09:30:07.000Z,100447
2018-10-01T09:31:52.000Z,100446
2018-10-01T09:33:07.000Z,100456
2018-10-01T09:34:07.000Z,100450
2018-10-01T09:35:07.000Z,100452
2018-10-01T09:37:07.000Z,100454
2018-10-01T09:45:18.000Z,100461
2018-10-01T09:47:04.000Z,100463
2018-10-01T09:48:04.000Z,100463
2018-10-01T09:50:04.000Z,100463
2018-10-01T09:52:04.000Z,100466
2018-10-01T09:53:49.000Z,100462
2018-10-01T09:55:04.000Z,100459
2018-10-01T09:56:49.000Z,100444
2018-10-01T09:58:03.000Z,100454
2018-10-01T10:00:03.000Z,100457
2018-10-01T10:02:03.000Z,100447
2018-10-01T10:04:03.000Z,100446
2018-10-01T10:05:48.000Z,100446
2018-10-01T10:07:03.000Z,100437
2018-10-01T10:08:03.000Z,100442
2018-10-01T10:10:03.000Z,100440
2018-10-01T10:12:03.000Z,100438
2018-10-01T10:13:48.000Z,100439
2018-10-01T10:15:03.000Z,100429
2018-10-01T10:17:03.000Z,100435
2018-10-01T10:19:03.000Z,100437
2018-10-01T10:21:03.000Z,100451
2018-10-01T10:23:03.000Z,100451
2018-10-01T10:24:03.000Z,100464
2018-10-01T10:26:03.000Z,100465
2018-10-01T10:27:03.000Z,100460
2018-10-01T10:28:03.000Z,100466
2018-10-01T10:30:03.000Z,100460
2018-10-01T10:32:03.000Z,100460
2018-10-01T10:34:03.000Z,100463
2018-10-01T10:35:03.000Z,100460
2018-10-01T10:37:03.000Z,100469
2018-10-01T10:39:03.000Z,100461
2018-10-01T10:41:03.000Z,100465
2018-10-01T10:42:03.000Z,100461
2018-10-01T10:44:03.000Z,100457
2018-10-01T10:45:03.000Z,100458
2018-10-01T10:47:03.000Z,100450
2018-10-01T10:48:03.000Z,100458
2018-10-01T10:50:03.000Z,100462
2018-10-01T10:52:03.000Z,100460
2018-10-01T10:54:03.000Z,100461
2018-10-01T10:55:03.000Z,100461
2018-10-01T10:57:03.000Z,100461
2018-10-01T10:59:03.000Z,100463
2018-10-01T11:00:48.000Z,100458
2018-10-01T11:02:03.000Z,100467
2018-10-01T11:03:03.000Z,100466
2018-10-01T11:05:03.000Z,100466
2018-10-01T11:07:03.000Z,100474
2018-10-01T11:09:03.000Z,100474
2018-10-01T11:11:03.000Z,100480
2018-10-01T11:12:03.000Z,100474
2018-10-01T11:14:03.000Z,100467
2018-10-01T11:15:03.000Z,100475
2018-10-01T11:17:03.000Z,100465
2018-10-01T11:19:03.000Z,100461
2018-10-01T11:21:03.000Z,100473
2018-10-01T11:23:03.000Z,100475
2018-10-01T11:25:03.000Z,100492
2018-10-01T11:27:03.000Z,100502
2018-10-01T11:28:03.000Z,100512
2018-10-01T11:29:03.000Z,100512
2018-10-01T11:30:48.000Z,100532
2018-10-01T11:32:03.000Z,100532
2018-10-01T11:33:48.000Z,100531
2018-10-01T11:35:03.000Z,100526
2018-10-01T11:36:03.000Z,100533
2018-10-01T11:38:03.000Z,100536
2018-10-01T11:39:48.000Z,100533
2018-10-01T11:41:03.000Z,100536
2018-10-01T11:42:03.000Z,100530
2018-10-01T11:44:03.000Z,100536
2018-10-01T11:45:48.000Z,100538
2018-10-01T11:47:03.000Z,100546
2018-10-01T11:49:03.000Z,100543
2018-10-01T11:51:03.000Z,100544
2018-10-01T11:53:03.000Z,100549
2018-10-01T11:55:03.000Z,100545
2018-10-01T11:57:03.000Z,100551
2018-10-01T11:58:03.000Z,100550
2018-10-01T11:59:03.000Z,100550
2018-10-01T12:01:03.000Z,100558
2018-10-01T12:03:03.000Z,100565
2018-10-01T12:04:48.000Z,100566
2018-10-01T12:06:03.000Z,100582
2018-10-01T12:08:03.000Z,100589
2018-10-01T12:09:03.000Z,100592
2018-10-01T12:10:48.000Z,100585
2018-10-01T12:12:03.000Z,100594
2018-10-01T12:14:03.000Z,100589
2018-10-01T12:16:03.000Z,100586
2018-10-01T12:18:03.000Z,100577
2018-10-01T12:20:03.000Z,100574
2018-10-01T12:21:48.000Z,100571
2018-10-01T12:23:03.000Z,100566
2018-10-01T12:25:03.000Z,100568
2018-10-01T12:26:03.000Z,100567
2018-10-01T12:27:03.000Z,100567
2018-10-01T12:29:03.000Z,100561
2018-10-01T12:30:48.000Z,100561
2018-10-01T12:32:03.000Z,100567
2018-10-01T12:34:03.000Z,100562
2018-10-01T12:36:03.000Z,100565
2018-10-01T12:37:03.000Z,100561
2018-10-01T12:39:03.000Z,100556
2018-10-01T12:41:03.000Z,100557
2018-10-01T12:43:03.000Z,100559
2018-10-01T12:45:03.000Z,100553
2018-10-01T12:47:03.000Z,100549
2018-10-01T12:48:03.000Z,100553
2018-10-01T12:50:03.000Z,100546
2018-10-01T12:51:03.000Z,100550
2018-10-01T12:52:48.000Z,100548
2018-10-01T12:54:04.000Z,100552
2018-10-01T12:56:03.000Z,100548
2018-10-01T12:58:03.000Z,100538
2018-10-01T13:00:03.000Z,100543
2018-10-01T13:01:48.000Z,100531
2018-10-01T13:02:48.000Z,100536
2018-10-01T13:04:03.000Z,100539
2018-10-01T13:05:03.000Z,100535
2018-10-01T13:06:48.000Z,100526
2018-10-01T13:08:03.000Z,100529
2018-10-01T13:10:04.000Z,100522
2018-10-01T13:12:04.000Z,100531
2018-10-01T13:13:04.000Z,100540
2018-10-01T13:15:04.000Z,100532
2018-10-01T13:17:04.000Z,100525
2018-10-01T13:18:48.000Z,100537
2018-10-01T13:20:04.000Z,100540
2018-10-01T13:22:04.000Z,100536
2018-10-01T13:23:04.000Z,100545
2018-10-01T13:24:48.000Z,100564
2018-10-01T13:26:04.000Z,100558
2018-10-01T13:27:33.000Z,100543
2018-10-01T13:29:04.000Z,100556
2018-10-01T13:31:04.000Z,100550
2018-10-01T13:33:04.000Z,100562
2018-10-01T13:35:04.000Z,100557
2018-10-01T13:37:04.000Z,100559
2018-10-01T13:38:04.000Z,100566
2018-10-01T13:40:04.000Z,100563
2018-10-01T13:42:04.000Z,100560
2018-10-01T13:44:04.000Z,100566
2018-10-01T13:46:04.000Z,100560
2018-10-01T13:47:48.000Z,100566
2018-10-01T13:49:04.000Z,100564
2018-10-01T13:51:04.000Z,100562
2018-10-01T13:53:04.000Z,100566
2018-10-01T13:54:48.000Z,100557
2018-10-01T13:56:04.000Z,100555
2018-10-01T13:58:04.000Z,100557
2018-10-01T13:59:04.000Z,100559
2018-10-01T14:00:04.000Z,100553
2018-10-01T14:02:04.000Z,100550
2018-10-01T14:04:04.000Z,100545
2018-10-01T14:06:04.000Z,100545
2018-10-01T14:07:04.000Z,100544
2018-10-01T14:09:04.000Z,100543
2018-10-01T14:11:04.000Z,100549
2018-10-01T14:13:03.000Z,100546
2018-10-01T14:15:03.000Z,100551
2018-10-01T14:17:03.000Z,100552
2018-10-01T14:18:03.000Z,100545
2018-10-01T14:21:58.000Z,100553
2018-10-01T14:23:44.000Z,100557
2018-10-01T14:24:44.000Z,100555
2018-10-01T14:25:44.000Z,100560
2018-10-01T14:26:44.000Z,100554
2018-10-01T14:28:44.000Z,100563
2018-10-01T14:30:44.000Z,100559
2018-10-01T14:31:44.000Z,100557
2018-10-01T14:33:44.000Z,100550
2018-10-01T14:34:44.000Z,100562
2018-10-01T14:36:44.000Z,100560
2018-10-01T14:38:44.000Z,100566
2018-10-01T14:39:44.000Z,100575
2018-10-01T14:41:44.000Z,100571
2018-10-01T14:43:44.000Z,100573
2018-10-01T14:45:44.000Z,100574
2018-10-01T14:47:44.000Z,100576
2018-10-01T14:49:44.000Z,100577
2018-10-01T14:51:44.000Z,100587
2018-10-01T14:53:44.000Z,100584
2018-10-01T14:54:44.000Z,100582
2018-10-01T14:56:44.000Z,100586
2018-10-01T14:58:44.000Z,100586
2018-10-01T14:59:44.000Z,100586
2018-10-01T15:01:44.000Z,100591
2018-10-01T15:02:44.000Z,100592
2018-10-01T15:03:44.000Z,100591
2018-10-01T15:05:44.000Z,100599
2018-10-01T15:07:44.000Z,100608
2018-10-01T15:08:44.000Z,100606
2018-10-01T15:09:44.000Z,100598
2018-10-01T15:11:44.000Z,100595
2018-10-01T15:13:44.000Z,100619
2018-10-01T15:14:44.000Z,100624
2018-10-01T15:16:44.000Z,100615
2018-10-01T15:18:44.000Z,100621
2018-10-01T15:20:29.000Z,100631
2018-10-01T15:21:44.000Z,100623
2018-10-01T15:22:44.000Z,100623
2018-10-01T15:24:29.000Z,100620
2018-10-01T15:25:44.000Z,100613
2018-10-01T15:27:44.000Z,100619
2018-10-01T15:29:44.000Z,100623
2018-10-01T15:31:44.000Z,100622
2018-10-01T15:32:44.000Z,100623
2018-10-01T15:34:44.000Z,100628
2018-10-01T15:35:44.000Z,100631
2018-10-01T15:37:44.000Z,100639
2018-10-01T15:39:13.000Z,100643
2018-10-01T15:40:44.000Z,100643
2018-10-01T15:42:44.000Z,100646
2018-10-01T15:43:44.000Z,100649
2018-10-01T15:45:44.000Z,100649
2018-10-01T15:47:44.000Z,100644
2018-10-01T15:49:44.000Z,100650
2018-10-01T15:51:29.000Z,100654
2018-10-01T15:52:29.000Z,100651
2018-10-01T15:53:44.000Z,100654
2018-10-01T15:54:44.000Z,100652
2018-10-01T15:56:44.000Z,100660
2018-10-01T15:57:44.000Z,100665
2018-10-01T15:59:29.000Z,100664
2018-10-01T16:00:44.000Z,100672
2018-10-01T16:01:44.000Z,100671
2018-10-01T16:03:44.000Z,100671
2018-10-01T16:05:44.000Z,100677
2018-10-01T16:06:44.000Z,100680
2018-10-01T16:08:44.000Z,100676
2018-10-01T16:09:44.000Z,100686
2018-10-01T16:11:44.000Z,100686
2018-10-01T16:13:44.000Z,100688
2018-10-01T16:15:44.000Z,100684
2018-10-01T16:16:44.000Z,100685
2018-10-01T16:18:44.000Z,100691
2018-10-01T16:20:44.000Z,100685
2018-10-01T16:22:44.000Z,100685
2018-10-01T16:23:44.000Z,100687
2018-10-01T16:25:13.000Z,100691
2018-10-01T16:26:44.000Z,100697
2018-10-01T16:27:44.000Z,100691
2018-10-01T16:29:44.000Z,100695
2018-10-01T16:31:44.000Z,100693
2018-10-01T16:33:44.000Z,100692
2018-10-01T16:35:28.000Z,100696
2018-10-01T16:36:44.000Z,100700
2018-10-01T16:37:44.000Z,100695
2018-10-01T16:39:44.000Z,100701
2018-10-01T16:41:44.000Z,100699
2018-10-01T16:42:44.000Z,100701
2018-10-01T16:44:44.000Z,100700
2018-10-01T16:46:44.000Z,100705
2018-10-01T16:48:44.000Z,100712
2018-10-01T16:50:28.000Z,100714
2018-10-01T16:51:44.000Z,100720
2018-10-01T16:53:28.000Z,100721
2018-10-01T16:54:44.000Z,100731
2018-10-01T16:55:44.000Z,100737
2018-10-01T16:57:29.000Z,100746
2018-10-01T16:58:44.000Z,100748
2018-10-01T17:00:44.000Z,100742
2018-10-01T17:02:44.000Z,100745
2018-10-01T17:04:44.000Z,100744
2018-10-01T17:06:44.000Z,100739
2018-10-01T17:07:44.000Z,100743
2018-10-01T17:09:44.000Z,100744
2018-10-01T17:11:44.000Z,100752
2018-10-01T17:12:44.000Z,100755
2018-10-01T17:14:29.000Z,100763
2018-10-01T17:15:44.000Z,100765
2018-10-01T17:17:44.000Z,100767
2018-10-01T17:19:13.000Z,100778
2018-10-01T17:20:44.000Z,100776
2018-10-01T17:22:44.000Z,100781
2018-10-01T17:24:44.000Z,100789
2018-10-01T17:26:44.000Z,100791
2018-10-01T17:27:44.000Z,100794
2018-10-01T17:28:44.000Z,100790
2018-10-01T17:30:44.000Z,100793
2018-10-01T17:32:44.000Z,100800
2018-10-01T17:34:29.000Z,100793
2018-10-01T17:35:44.000Z,100797
2018-10-01T17:36:44.000Z,100800
2018-10-01T17:38:44.000Z,100796
2018-10-01T17:40:44.000Z,100800
2018-10-01T17:41:44.000Z,100799
2018-10-01T17:43:44.000Z,100805
2018-10-01T17:44:44.000Z,100803
2018-10-01T17:46:44.000Z,100810
2018-10-01T17:48:29.000Z,100812
2018-10-01T17:49:44.000Z,100819
2018-10-01T17:50:44.000Z,100813
2018-10-01T17:52:44.000Z,100819
2018-10-01T17:53:44.000Z,100809
2018-10-01T17:55:44.000Z,100811
2018-10-01T17:57:44.000Z,100813
2018-10-01T17:58:44.000Z,100817
2018-10-01T18:00:44.000Z,100815
2018-10-01T18:02:44.000Z,100821
2018-10-01T18:04:44.000Z,100825
2018-10-01T18:06:44.000Z,100826
2018-10-01T18:08:44.000Z,100828
2018-10-01T18:10:44.000Z,100823
2018-10-01T18:11:44.000Z,100827
2018-10-01T18:13:44.000Z,100829
2018-10-01T18:15:44.000Z,100836
2018-10-01T18:17:44.000Z,100838
2018-10-01T18:19:44.000Z,100842
2018-10-01T18:21:44.000Z,100846
2018-10-01T18:22:44.000Z,100841
2018-10-01T18:24:44.000Z,100847
2018-10-01T18:25:44.000Z,100849
2018-10-01T18:27:44.000Z,100844
2018-10-01T18:29:44.000Z,100852
2018-10-01T18:31:44.000Z,100858
2018-10-01T18:32:44.000Z,100854
2018-10-01T18:34:44.000Z,100857
2018-10-01T18:36:29.000Z,100859
2018-10-01T18:38:44.000Z,100861
2018-10-01T18:39:44.000Z,100865
2018-10-01T18:41:44.000Z,100862
2018-10-01T18:42:44.000Z,100863
2018-10-01T18:44:44.000Z,100862
2018-10-01T18:45:44.000Z,100864
2018-10-01T18:47:44.000Z,100865
2018-10-01T18:49:29.000Z,100867
2018-10-01T18:50:44.000Z,100871
2018-10-01T18:52:44.000Z,100875
2018-10-01T18:54:44.000Z,100869
2018-10-01T18:56:44.000Z,100869
2018-10-01T18:58:29.000Z,100872
2018-10-01T18:59:44.000Z,100871
2018-10-01T19:00:44.000Z,100877
2018-10-01T19:02:44.000Z,100874
2018-10-01T19:03:44.000Z,100872
2018-10-01T19:05:44.000Z,100868
2018-10-01T19:07:44.000Z,100869
2018-10-01T19:09:44.000Z,100868
2018-10-01T19:11:44.000Z,100864
2018-10-01T19:12:44.000Z,100862
2018-10-01T19:14:44.000Z,100867
2018-10-01T19:16:44.000Z,100870
2018-10-01T19:18:29.000Z,100870
2018-10-01T19:19:44.000Z,100875
2018-10-01T19:20:44.000Z,100874
2018-10-01T19:22:29.000Z,100870
2018-10-01T19:23:44.000Z,100879
2018-10-01T19:24:44.000Z,100878
2018-10-01T19:26:44.000Z,100878
2018-10-01T19:27:44.000Z,100877
2018-10-01T19:29:44.000Z,100881
2018-10-01T19:31:44.000Z,100876
2018-10-01T19:33:44.000Z,100878
2018-10-01T19:34:44.000Z,100874
2018-10-01T19:36:44.000Z,100873
2018-10-01T19:38:44.000Z,100880
2018-10-01T19:40:29.000Z,100882
2018-10-01T19:41:44.000Z,100878
2018-10-01T19:43:44.000Z,100878
2018-10-01T19:45:44.000Z,100880
2018-10-01T19:47:44.000Z,100890
2018-10-01T19:48:44.000Z,100881
2018-10-01T19:49:44.000Z,100883
2018-10-01T19:51:44.000Z,100889
2018-10-01T19:53:44.000Z,100884
2018-10-01T19:55:44.000Z,100882
2018-10-01T19:56:44.000Z,100885
2018-10-01T19:57:44.000Z,100884
2018-10-01T19:59:44.000Z,100887
2018-10-01T20:00:44.000Z,100885
2018-10-01T20:02:44.000Z,100890
2018-10-01T20:03:44.000Z,100888
2018-10-01T20:05:44.000Z,100892
2018-10-01T20:07:44.000Z,100892
2018-10-01T20:09:44.000Z,100886
2018-10-01T20:10:44.000Z,100891
2018-10-01T20:12:44.000Z,100895
2018-10-01T20:14:44.000Z,100895
2018-10-01T20:15:44.000Z,100893
2018-10-01T20:17:44.000Z,100888
2018-10-01T20:19:44.000Z,100890
2018-10-01T20:20:44.000Z,100894
2018-10-01T20:22:44.000Z,100895
2018-10-01T20:24:29.000Z,100897